Time;durP1;ratioP1;P1;durP2;ratioP2;P2;SDS_P1;SDS_P2;PMS_P1;PMS_P2;Temp;Humidity;BMP_temperature;BMP_pressure;BME280_temperature;BME280_humidity;BME280_pressure;Samples;Min_cycle;Max_cycle;Signal;HPM_P1;HPM_P2
2021/11/02 00:01:26;;;;;;;17.27;6.97;;;;;;;7.02;100.00;99935.38;5010563;28;20030;-74
2021/11/02 00:03:52;;;;;;;9.57;5.28;;;;;;;7.06;100.00;99949.38;5009122;28;20034;-74
2021/11/02 00:06:18;;;;;;;11.45;5.57;;;;;;;7.04;100.00;99933.66;5011881;28;20030;-74
2021/11/02 00:08:43;;;;;;;8.57;5.60;;;;;;;7.03;100.00;99941.50;5012514;28;20048;-74
2021/11/02 00:11:08;;;;;;;12.20;6.35;;;;;;;6.98;100.00;99938.78;5012598;28;20113;-74
2021/11/02 00:13:41;;;;;;;9.60;5.95;;;;;;;7.01;100.00;99938.84;5014112;28;20616;-74
2021/11/02 00:16:08;;;;;;;16.85;7.60;;;;;;;7.02;100.00;99932.75;5010104;28;20037;-73
2021/11/02 00:18:35;;;;;;;9.73;5.82;;;;;;;7.02;100.00;99932.75;5011833;28;20018;-73
2021/11/02 00:21:01;;;;;;;13.20;6.57;;;;;;;6.97;100.00;99929.16;5011507;28;20025;-73
2021/11/02 00:23:38;;;;;;;10.02;6.35;;;;;;;6.93;100.00;99924.75;5010845;28;20037;-74
2021/11/02 00:26:13;;;;;;;15.68;6.78;;;;;;;6.91;100.00;99932.56;5011556;28;20022;-74
2021/11/02 00:28:39;;;;;;;10.90;6.57;;;;;;;6.92;100.00;99928.25;5011086;28;20065;-74
2021/11/02 00:31:05;;;;;;;11.10;5.63;;;;;;;6.91;100.00;99927.34;5010092;28;20739;-73
2021/11/02 00:33:30;;;;;;;13.88;6.50;;;;;;;6.93;100.00;99929.97;5010797;28;20026;-74
2021/11/02 00:35:57;;;;;;;11.70;6.93;;;;;;;6.91;100.00;99922.09;5011964;28;20496;-74
2021/11/02 00:38:22;;;;;;;11.63;6.70;;;;;;;6.90;100.00;99919.47;5013444;28;20084;-73
2021/11/02 00:40:48;;;;;;;9.52;5.47;;;;;;;6.89;100.00;99909.88;5010947;28;20066;-73
2021/11/02 00:43:14;;;;;;;10.18;5.75;;;;;;;6.90;100.00;99914.25;5011776;28;20022;-73
2021/11/02 00:45:41;;;;;;;12.50;6.68;;;;;;;6.86;100.00;99917.66;5011029;28;20034;-74
2021/11/02 00:48:12;;;;;;;11.02;6.97;;;;;;;6.86;100.00;99920.28;5010707;28;20284;-74
2021/11/02 00:50:39;;;;;;;13.15;6.13;;;;;;;6.88;100.00;99926.44;5005803;28;20025;-74
2021/11/02 00:53:05;;;;;;;11.88;6.55;;;;;;;6.91;100.00;99916.00;5015406;28;20068;-73
2021/11/02 00:55:30;;;;;;;12.85;6.28;;;;;;;6.90;100.00;99919.47;5015908;28;20030;-73
2021/11/02 00:57:56;;;;;;;10.32;6.45;;;;;;;6.90;100.00;99920.38;5015504;28;20117;-73
2021/11/02 01:00:24;;;;;;;13.10;7.35;;;;;;;6.89;100.00;99923.84;5016009;28;20481;-74
2021/11/02 01:02:50;;;;;;;9.50;6.18;;;;;;;6.91;100.00;99913.41;5016164;28;20036;-73
2021/11/02 01:05:16;;;;;;;10.52;6.53;;;;;;;6.90;100.00;99919.47;5017726;28;20061;-74
2021/11/02 01:07:41;;;;;;;13.23;6.72;;;;;;;6.90;100.00;99920.38;5030239;28;20382;-74
2021/11/02 01:10:13;;;;;;;11.07;6.70;;;;;;;6.90;100.00;99909.91;5034012;28;20339;-74
2021/11/02 01:12:39;;;;;;;13.43;6.78;;;;;;;6.94;100.00;99916.06;5038010;28;20026;-74
2021/11/02 01:15:07;;;;;;;8.82;6.20;;;;;;;6.96;100.00;99914.34;5019043;28;20061;-74
2021/11/02 01:17:33;;;;;;;13.10;8.68;;;;;;;6.97;100.00;99915.22;5015863;28;20034;-74
2021/11/02 01:19:58;;;;;;;17.05;6.70;;;;;;;6.99;100.00;99909.16;5012833;28;20363;-74
2021/11/02 01:22:23;;;;;;;11.65;7.22;;;;;;;7.00;100.00;99912.66;5019122;28;20459;-73
2021/11/02 01:24:49;;;;;;;11.75;7.22;;;;;;;7.03;100.00;99910.97;5015983;28;20030;-73
2021/11/02 01:27:14;;;;;;;12.90;6.22;;;;;;;7.03;100.00;99916.22;5013144;28;20046;-73
2021/11/02 01:29:39;;;;;;;16.58;6.72;;;;;;;7.02;100.00;99911.81;5014545;28;20385;-74
2021/11/02 01:32:05;;;;;;;11.63;7.28;;;;;;;7.04;100.00;99910.13;5013962;28;20049;-74
2021/11/02 01:34:30;;;;;;;13.52;7.63;;;;;;;7.06;100.00;99916.25;5014809;28;20025;-74
2021/11/02 01:36:56;;;;;;;13.30;6.85;;;;;;;7.07;100.00;99917.16;5015826;28;20021;-74
2021/11/02 01:39:23;;;;;;;12.63;7.72;;;;;;;7.03;100.00;99916.22;5016614;28;20489;-74
2021/11/02 01:41:49;;;;;;;15.60;7.93;;;;;;;7.06;100.00;99910.16;5015168;28;20352;-74
2021/11/02 01:44:15;;;;;;;10.55;7.05;;;;;;;7.06;100.00;99912.75;5014646;28;20030;-74
2021/11/02 01:46:43;;;;;;;15.35;7.93;;;;;;;7.07;100.00;99915.41;5014082;28;20037;-74
2021/11/02 01:49:09;;;;;;;16.50;7.60;;;;;;;7.06;100.00;99908.41;5016320;28;20474;-74
2021/11/02 01:51:35;;;;;;;16.50;7.88;;;;;;;7.08;100.00;99911.94;5014405;28;20592;-74
2021/11/02 01:54:03;;;;;;;13.82;7.07;;;;;;;7.13;100.00;99913.75;5014749;28;20028;-74
2021/11/02 01:56:28;;;;;;;11.18;7.20;;;;;;;7.14;100.00;99912.91;5015617;28;20017;-74
2021/11/02 01:58:54;;;;;;;15.55;7.90;;;;;;;7.12;100.00;99919.81;5015377;28;20084;-74
2021/11/02 02:01:33;;;;;;;14.00;7.03;;;;;;;7.15;100.00;99912.00;5014068;28;20085;-74
2021/11/02 02:04:11;;;;;;;12.55;7.60;;;;;;;7.20;100.00;99913.88;5009691;28;20022;-74
2021/11/02 02:06:49;;;;;;;12.23;7.07;;;;;;;7.20;100.00;99905.13;5013653;28;20119;-74
2021/11/02 02:09:26;;;;;;;12.50;6.95;;;;;;;7.18;100.00;99909.47;5014798;28;20025;-74
2021/11/02 02:12:02;;;;;;;11.68;7.30;;;;;;;7.18;100.00;99912.09;5012620;28;20026;-73
2021/11/02 02:14:37;;;;;;;11.90;6.88;;;;;;;7.22;100.00;99908.66;5011938;28;20033;-74
2021/11/02 02:17:14;;;;;;;11.07;7.03;;;;;;;7.16;100.00;99898.97;5013655;28;20029;-74
2021/11/02 02:19:55;;;;;;;13.35;7.82;;;;;;;7.15;100.00;99904.16;5014304;28;20033;-74
2021/11/02 02:22:27;;;;;;;15.38;8.68;;;;;;;7.12;100.00;99905.00;5012916;28;20112;-73
2021/11/02 02:25:07;;;;;;;14.25;7.82;;;;;;;7.08;100.00;99904.09;5013780;28;20041;-73
2021/11/02 02:27:44;;;;;;;12.45;7.90;;;;;;;7.08;100.00;99900.56;5009594;28;20052;-74
2021/11/02 02:30:16;;;;;;;13.15;8.43;;;;;;;7.04;100.00;99904.91;5012572;28;20049;-74
2021/11/02 02:32:44;;;;;;;13.75;9.13;;;;;;;7.02;100.00;99906.59;5006856;28;20030;-74
2021/11/02 02:35:12;;;;;;;18.55;9.20;;;;;;;7.02;100.00;99903.97;5011400;28;20021;-74
2021/11/02 02:37:40;;;;;;;18.70;9.38;;;;;;;7.03;100.00;99902.25;5011525;28;20033;-74
2021/11/02 02:40:07;;;;;;;15.93;8.63;;;;;;;7.02;100.00;99901.34;5014190;28;20385;-74
2021/11/02 02:42:34;;;;;;;16.75;8.93;;;;;;;6.98;100.00;99901.31;5011343;28;20042;-74
2021/11/02 02:45:01;;;;;;;18.70;9.27;;;;;;;6.99;100.00;99893.47;5013531;28;20030;-74
2021/11/02 02:47:28;;;;;;;17.38;9.02;;;;;;;6.96;100.00;99887.31;5013873;28;20030;-73
2021/11/02 02:49:55;;;;;;;17.15;9.60;;;;;;;6.95;100.00;99881.22;5013572;28;20072;-74
2021/11/02 02:52:22;;;;;;;15.30;8.68;;;;;;;6.95;100.00;99881.22;5013490;28;20048;-74
2021/11/02 02:54:50;;;;;;;14.60;8.38;;;;;;;6.94;100.00;99879.44;5011970;28;20382;-74
2021/11/02 02:57:19;;;;;;;15.98;8.70;;;;;;;6.94;100.00;99871.59;5014410;28;20088;-73
2021/11/02 02:59:45;;;;;;;18.70;8.85;;;;;;;6.98;100.00;99875.16;5013435;28;20053;-73
2021/11/02 03:02:12;;;;;;;19.58;9.05;;;;;;;6.96;100.00;99875.13;5011967;28;20026;-73
2021/11/02 03:04:40;;;;;;;23.73;9.40;;;;;;;6.95;100.00;99872.50;5005269;28;20026;-73
2021/11/02 03:07:06;;;;;;;17.35;8.80;;;;;;;6.93;100.00;99872.44;5012784;28;20030;-73
2021/11/02 03:09:32;;;;;;;16.98;9.15;;;;;;;6.87;100.00;99868.00;5013432;28;20045;-74
2021/11/02 03:11:59;;;;;;;18.75;9.07;;;;;;;6.86;100.00;99862.75;5012329;28;20053;-74
2021/11/02 03:14:36;;;;;;;14.95;8.70;;;;;;;6.84;100.00;99867.09;5005593;28;20077;-74
2021/11/02 03:17:09;;;;;;;15.07;8.13;;;;;;;6.85;100.00;99863.59;5012667;28;20060;-74
2021/11/02 03:55:51;;;;;;;18.85;8.20;;;;;;;6.69;100.00;99907.81;5009489;28;20064;-74
2021/11/02 03:58:23;;;;;;;20.90;8.95;;;;;;;6.69;100.00;99899.09;5007798;28;20064;-74
2021/11/02 04:01:07;;;;;;;24.65;9.20;;;;;;;6.66;100.00;99899.91;5011458;28;20022;-74
2021/11/02 04:31:24;;;;;;;18.20;9.95;;;;;;;6.43;100.00;99919.53;5010470;28;20099;-74
2021/11/02 05:06:49;;;;;;;16.92;8.90;;;;;;;6.31;100.00;99925.38;5015863;28;20103;-74
2021/11/02 05:47:59;;;;;;;22.20;9.60;;;;;;;6.17;100.00;99932.97;5014102;28;20092;-75
2021/11/02 05:58:45;;;;;;;23.23;11.27;;;;;;;6.24;100.00;99934.88;5011108;28;20084;-75
2021/11/02 06:09:38;;;;;;;30.50;13.10;;;;;;;6.33;100.00;99931.53;5012554;28;20037;-74
2021/11/02 06:28:59;;;;;;;32.15;14.32;;;;;;;6.48;100.00;99944.88;5014831;28;20156;-73
2021/11/02 06:31:31;;;;;;;24.42;13.80;;;;;;;6.52;100.00;99932.75;5014128;28;20547;-75
2021/11/02 06:47:06;;;;;;;25.35;12.18;;;;;;;6.73;100.00;99943.59;5015074;28;20038;-73
2021/11/02 06:50:01;;;;;;;25.05;13.40;;;;;;;6.73;100.00;99942.75;5014331;28;20030;-75
2021/11/02 07:10:54;;;;;;;24.88;12.38;;;;;;;6.82;100.00;99942.88;5011924;28;20044;-75
2021/11/02 08:47:37;;;;;;;35.88;19.67;;;;;;;7.69;100.00;99970.38;5013426;28;20129;-75
2021/11/02 08:50:05;;;;;;;38.60;20.33;;;;;;;7.71;100.00;99963.44;5012785;28;20040;-74
2021/11/02 08:52:33;;;;;;;37.10;19.52;;;;;;;7.70;100.00;99967.78;5012377;28;20125;-75
2021/11/02 08:54:59;;;;;;;39.53;21.02;;;;;;;7.72;100.00;99960.84;5013967;28;20088;-74
2021/11/02 08:57:24;;;;;;;49.95;21.83;;;;;;;7.72;100.00;99960.84;5013591;28;20038;-74
2021/11/02 08:59:51;;;;;;;38.50;21.63;;;;;;;7.73;100.00;99957.38;5012440;28;20054;-74
2021/11/02 09:02:25;;;;;;;36.85;21.45;;;;;;;7.75;100.00;99960.88;5013119;28;20023;-75
2021/11/02 09:05:00;;;;;;;36.38;22.05;;;;;;;7.80;100.00;99963.59;5012301;28;20037;-75
2021/11/02 09:07:28;;;;;;;38.47;22.00;;;;;;;7.85;100.00;99966.25;5013178;28;20497;-74
2021/11/02 09:09:56;;;;;;;36.90;21.77;;;;;;;7.88;100.00;99961.03;5002668;28;20029;-74
2021/11/02 09:12:28;;;;;;;40.42;21.13;;;;;;;7.92;100.00;99973.31;5012779;28;20464;-72
2021/11/02 09:14:54;;;;;;;41.20;21.48;;;;;;;7.97;100.00;99974.25;5014987;28;20749;-72
2021/11/02 09:17:21;;;;;;;42.03;22.10;;;;;;;7.99;100.00;99976.91;5015838;28;20030;-74
2021/11/02 09:19:47;;;;;;;35.63;22.27;;;;;;;8.00;100.00;99969.06;5025436;28;20029;-75
2021/11/02 09:22:15;;;;;;;38.63;22.63;;;;;;;8.01;100.00;99975.19;5017023;28;20103;-76
2021/11/02 09:24:44;;;;;;;36.42;20.52;;;;;;;8.06;100.00;99981.38;5017667;28;20099;-76
2021/11/02 09:27:14;;;;;;;32.80;21.42;;;;;;;8.07;100.00;99978.78;5017286;28;20495;-76
2021/11/02 09:29:39;;;;;;;38.38;22.23;;;;;;;8.09;100.00;99977.03;5016966;28;20033;-74
2021/11/02 09:32:08;;;;;;;39.17;21.17;;;;;;;8.12;100.00;99975.34;5013799;28;20512;-75
2021/11/02 09:34:34;;;;;;;39.28;22.45;;;;;;;8.11;100.00;99979.69;5018490;28;20029;-74
2021/11/02 09:37:07;;;;;;;35.55;22.27;;;;;;;8.16;100.00;99974.50;5016762;28;20393;-75
2021/11/02 09:39:40;;;;;;;33.72;21.92;;;;;;;8.15;100.00;99975.38;5016093;28;20080;-76
2021/11/02 09:42:34;;;;;;;38.90;22.00;;;;;;;8.12;100.00;99973.59;5015880;28;20524;-75
2021/11/02 09:45:32;;;;;;;43.63;23.05;;;;;;;8.09;100.00;99971.78;5016720;28;20457;-74
2021/11/02 09:48:32;;;;;;;35.55;22.98;;;;;;;8.06;100.00;99966.53;5013337;28;20042;-74
2021/11/02 09:51:34;;;;;;;37.35;22.02;;;;;;;8.03;100.00;99963.88;5016134;28;20512;-75
2021/11/02 09:54:23;;;;;;;38.42;21.90;;;;;;;8.05;100.00;99970.00;5013230;28;20034;-75
2021/11/02 09:56:56;;;;;;;33.22;21.50;;;;;;;8.07;100.00;99976.16;5023428;28;20037;-74
2021/11/02 09:59:45;;;;;;;30.52;21.45;;;;;;;8.08;100.00;99970.06;5008716;28;20026;-74
2021/11/02 10:02:32;;;;;;;36.42;22.08;;;;;;;8.09;100.00;99974.41;5015704;28;20079;-75
2021/11/02 10:05:13;;;;;;;38.17;21.70;;;;;;;8.15;100.00;99975.38;5015095;28;20049;-74
2021/11/02 10:07:56;;;;;;;33.35;21.05;;;;;;;8.20;100.00;99978.94;5014050;28;20040;-75
2021/11/02 10:10:26;;;;;;;37.22;22.55;;;;;;;8.23;100.00;99973.72;5015496;28;20055;-75
2021/11/02 10:13:08;;;;;;;35.47;23.48;;;;;;;8.25;100.00;99969.38;5015664;28;20389;-75
2021/11/02 10:15:48;;;;;;;39.53;23.55;;;;;;;8.27;100.00;99970.25;5015637;28;20030;-74
2021/11/02 10:18:44;;;;;;;40.63;22.13;;;;;;;8.32;100.00;99968.59;5016058;28;20022;-74
2021/11/02 10:21:37;;;;;;;36.65;21.27;;;;;;;8.36;100.00;99977.38;5015212;28;20394;-76
2021/11/02 10:24:03;;;;;;;35.22;23.00;;;;;;;8.39;100.00;99975.66;5012308;28;20033;-75
2021/11/02 10:26:49;;;;;;;34.35;20.92;;;;;;;8.44;100.00;99970.47;5014394;28;20100;-74
2021/11/02 10:29:33;;;;;;;37.35;21.42;;;;;;;8.44;100.00;99960.84;5016558;28;20123;-74
2021/11/02 10:32:08;;;;;;;;;;;;;;;8.48;100.00;99966.16;5015579;28;20496;-75
2021/11/02 10:34:34;;;;;;;;;;;;;;;8.48;100.00;99974.03;5015941;28;19979;-75
2021/11/02 10:37:29;;;;;;;28.70;19.50;;;;;;;8.44;100.00;99968.72;5015585;28;20369;-75
2021/11/02 10:40:02;;;;;;;30.25;19.83;;;;;;;8.44;100.00;99973.09;5009758;28;20490;-74
2021/11/02 10:42:37;;;;;;;35.97;19.98;;;;;;;8.42;100.00;99965.22;5013764;28;20095;-74
2021/11/02 10:45:10;;;;;;;37.80;22.90;;;;;;;8.36;100.00;99967.75;5015667;28;20037;-74
2021/11/02 10:48:09;;;;;;;33.20;21.48;;;;;;;8.31;100.00;99969.44;5013238;28;20038;-74
2021/11/02 10:50:45;;;;;;;36.13;21.58;;;;;;;8.27;100.00;99970.25;5014124;28;20050;-74
2021/11/02 10:53:21;;;;;;;42.30;21.95;;;;;;;8.21;100.00;99971.06;5013296;28;20030;-75
2021/11/02 10:55:58;;;;;;;41.47;22.42;;;;;;;8.19;100.00;99971.91;5029878;28;20045;-75
2021/11/02 10:58:33;;;;;;;39.13;23.75;;;;;;;8.15;100.00;99970.13;5010921;28;20049;-75
2021/11/02 11:01:05;;;;;;;39.67;24.27;;;;;;;8.14;100.00;99984.06;5013946;28;20026;-74
2021/11/02 11:03:32;;;;;;;42.72;22.40;;;;;;;8.17;100.00;99976.28;5011713;28;20025;-75
2021/11/02 11:06:00;;;;;;;38.45;23.30;;;;;;;8.21;100.00;99976.31;5014114;28;20030;-74
2021/11/02 11:08:30;;;;;;;36.75;23.10;;;;;;;8.26;100.00;99973.75;5012902;28;20030;-75
2021/11/02 11:10:57;;;;;;;38.10;24.25;;;;;;;8.34;100.00;99979.09;5016771;28;20061;-75
2021/11/02 11:13:25;;;;;;;32.42;22.17;;;;;;;8.41;100.00;99979.19;5008712;28;20173;-75
2021/11/02 11:16:05;;;;;;;34.65;21.85;;;;;;;8.49;100.00;99973.16;5013042;28;20496;-75
2021/11/02 11:18:49;;;;;;;34.70;20.98;;;;;;;8.59;100.00;99975.03;5014363;28;20026;-75
2021/11/02 11:21:15;;;;;;;28.33;19.05;;;;;;;8.68;100.00;99971.63;5014090;28;20501;-75
2021/11/02 11:23:49;;;;;;;26.40;19.00;;;;;;;8.65;100.00;99967.22;5014525;28;20041;-75
2021/11/02 11:26:14;;;;;;;;;;;;;;;8.62;100.00;99956.69;5014956;28;20018;-75
2021/11/02 11:28:40;;;;;;;25.45;18.15;;;;;;;8.62;100.00;99969.81;5014224;28;19924;-75
2021/11/02 11:31:07;;;;;;;29.63;18.73;;;;;;;8.61;100.00;99960.19;5013843;28;20049;-75
2021/11/02 11:33:33;;;;;;;29.85;18.58;;;;;;;8.58;100.00;99960.16;5014576;28;20490;-74
2021/11/02 11:36:06;;;;;;;27.63;18.38;;;;;;;8.59;100.00;99959.31;5013962;28;20095;-74
2021/11/02 11:38:37;;;;;;;24.92;16.98;;;;;;;8.58;100.00;99961.03;5010977;28;20025;-74
2021/11/02 11:41:08;;;;;;;25.70;17.75;;;;;;;8.57;100.00;99963.63;5013151;28;20034;-74
2021/11/02 11:43:34;;;;;;;26.23;16.90;;;;;;;8.59;100.00;99964.53;5013010;28;20370;-74
2021/11/02 11:46:04;;;;;;;26.02;18.55;;;;;;;8.60;100.00;99959.31;5015509;28;20026;-75
2021/11/02 11:48:31;;;;;;;24.77;17.20;;;;;;;8.66;100.00;99953.25;5019515;28;20617;-74
2021/11/02 11:51:00;;;;;;;23.73;17.70;;;;;;;8.69;100.00;99953.25;5012076;28;20033;-75
2021/11/02 11:53:29;;;;;;;31.58;18.35;;;;;;;8.73;100.00;99949.81;5016985;28;20038;-75
2021/11/02 11:56:08;;;;;;;22.27;16.80;;;;;;;8.77;100.00;99946.34;5012057;28;20037;-76
2021/11/02 11:58:34;;;;;;;24.83;17.05;;;;;;;8.83;100.00;99949.91;5022925;28;20022;-75
2021/11/02 12:01:26;;;;;;;22.10;15.77;;;;;;;8.86;100.00;99949.94;5011716;28;20485;-74
2021/11/02 12:03:57;;;;;;;17.48;13.25;;;;;;;8.87;100.00;99946.44;5013479;28;20579;-73
2021/11/02 12:06:28;;;;;;;16.85;13.98;;;;;;;8.83;100.00;99939.41;5011613;28;20180;-74
2021/11/02 12:09:06;;;;;;;24.67;14.60;;;;;;;8.81;100.00;99949.03;5013227;28;20030;-74
2021/11/02 12:11:33;;;;;;;20.15;13.52;;;;;;;8.78;100.00;99942.88;5006500;28;20029;-75
2021/11/02 12:14:19;;;;;;;18.23;12.70;;;;;;;8.71;100.00;99941.06;5012005;28;20132;-74
2021/11/02 12:16:46;;;;;;;15.60;12.25;;;;;;;8.64;100.00;99944.50;5008271;28;20033;-75
2021/11/02 12:19:15;;;;;;;18.40;12.85;;;;;;;8.58;100.00;99944.44;5012526;28;20108;-74
2021/11/02 12:21:43;;;;;;;14.98;11.95;;;;;;;8.55;100.00;99941.78;5013629;28;20026;-74
2021/11/02 12:24:12;;;;;;;15.25;10.75;;;;;;;8.51;100.00;99943.47;5012318;28;20034;-74
2021/11/02 12:26:49;;;;;;;15.80;12.23;;;;;;;8.51;100.00;99946.09;5012568;28;20022;-75
2021/11/02 12:29:27;;;;;;;18.77;11.88;;;;;;;8.53;100.00;99946.13;5015538;28;20029;-75
2021/11/02 12:31:59;;;;;;;16.60;11.73;;;;;;;8.52;100.00;99947.88;5012678;28;20022;-74
2021/11/02 12:34:27;;;;;;;15.25;11.88;;;;;;;8.53;100.00;99946.13;5012990;28;20045;-74
2021/11/02 12:36:56;;;;;;;19.20;13.82;;;;;;;8.54;100.00;99953.13;5013783;28;20045;-73
2021/11/02 12:39:30;;;;;;;10.93;8.80;;;;;;;8.44;100.00;99953.00;5007579;28;20022;-74
2021/11/02 12:41:57;;;;;;;9.07;6.82;;;;;;;8.40;100.00;99948.56;4986798;28;20061;-74
2021/11/02 12:44:29;;;;;;;6.72;5.00;;;;;;;8.36;100.00;99949.41;4999406;28;20045;-73
2021/11/02 12:46:56;;;;;;;6.18;3.65;;;;;;;8.35;100.00;99941.53;5012630;28;20021;-75
2021/11/02 12:49:48;;;;;;;6.60;4.07;;;;;;;8.34;100.00;99945.91;5014112;28;20034;-74
2021/11/02 12:52:18;;;;;;;5.57;4.07;;;;;;;8.38;100.00;99947.69;5005859;28;20037;-74
2021/11/02 12:55:01;;;;;;;4.70;4.00;;;;;;;8.42;100.00;99943.34;5015969;28;20064;-74
2021/11/02 12:57:38;;;;;;;6.80;4.57;;;;;;;8.48;100.00;99945.19;5013209;28;20383;-75
2021/11/02 13:00:11;;;;;;;6.20;4.38;;;;;;;8.55;100.00;99949.66;5017248;28;20449;-74
2021/11/02 13:02:39;;;;;;;4.27;3.17;;;;;;;8.59;100.00;99948.81;5016870;28;20030;-74
2021/11/02 13:05:23;;;;;;;4.40;2.72;;;;;;;8.65;100.00;99943.59;5016708;28;20276;-74
2021/11/02 13:08:02;;;;;;;3.95;2.90;;;;;;;8.70;100.00;99949.78;5024620;28;20426;-75
2021/11/02 13:10:32;;;;;;;3.95;2.78;;;;;;;8.76;100.00;99949.88;5015269;28;20438;-74
2021/11/02 13:13:15;;;;;;;3.80;3.20;;;;;;;8.80;100.00;99955.13;5015978;28;20060;-74
2021/11/02 13:15:52;;;;;;;3.20;2.70;;;;;;;8.78;100.00;99948.13;5016427;28;20386;-74
2021/11/02 13:18:37;;;;;;;4.75;2.60;;;;;;;8.80;100.00;99952.50;5016504;28;20116;-74
2021/11/02 13:21:22;;;;;;;6.80;2.58;;;;;;;8.82;100.00;99953.38;5016028;28;20417;-75
2021/11/02 13:23:52;;;;;;;2.42;1.92;;;;;;;8.79;100.00;99959.50;5017722;28;20406;-75
2021/11/02 13:26:19;;;;;;;6.07;1.83;;;;;;;8.80;100.00;99957.75;5017990;28;20507;-75
2021/11/02 13:28:45;;;;;;;6.57;2.03;;;;;;;8.83;100.00;99960.41;5014896;28;20044;-75
2021/11/02 13:31:44;;;;;;;3.80;2.20;;;;;;;8.83;100.00;99963.03;5015807;28;20029;-75
2021/11/02 13:34:15;;;;;;;6.75;1.52;;;;;;;8.88;100.00;99961.31;4997277;28;20045;-75
2021/11/02 13:36:42;;;;;;;7.93;1.48;;;;;;;8.92;100.00;99957.84;5017875;28;20507;-75
2021/11/02 13:39:09;;;;;;;5.72;1.60;;;;;;;8.97;100.00;99958.78;5015490;28;20022;-76
2021/11/02 13:41:47;;;;;;;4.07;1.23;;;;;;;9.05;100.00;99966.72;5016409;28;20030;-75
2021/11/02 13:44:14;;;;;;;5.13;2.30;;;;;;;9.11;100.00;99964.16;5013587;28;20054;-76
2021/11/02 13:46:47;;;;;;;2.63;1.10;;;;;;;9.22;100.00;99958.97;5016178;28;20167;-75
2021/11/02 13:49:14;;;;;;;2.60;0.90;;;;;;;9.35;100.00;99959.97;5016447;28;20539;-74
2021/11/02 13:51:40;;;;;;;6.03;1.15;;;;;;;9.47;100.00;99956.53;5016192;28;20103;-74
2021/11/02 13:54:07;;;;;;;2.40;0.85;;;;;;;9.57;99.63;99961.84;5017985;28;20031;-74
2021/11/02 13:56:35;;;;;;;1.45;0.75;;;;;;;9.57;98.08;99955.72;5014898;28;20044;-75
2021/11/02 13:59:03;;;;;;;1.35;0.75;;;;;;;9.57;98.17;99960.97;5015627;28;20036;-75
2021/11/02 14:01:34;;;;;;;1.42;0.63;;;;;;;9.56;97.27;99967.09;5016384;28;20029;-74
2021/11/02 14:04:12;;;;;;;0.68;0.40;;;;;;;9.48;96.03;99971.41;5015403;28;20112;-75
2021/11/02 14:06:42;;;;;;;2.92;0.68;;;;;;;9.44;96.85;99975.75;5015157;28;20033;-74
2021/11/02 14:09:11;;;;;;;3.20;0.65;;;;;;;9.44;96.99;99971.41;5014042;28;20463;-75
2021/11/02 14:11:38;;;;;;;1.98;0.60;;;;;;;9.46;96.41;99974.03;5015759;28;20053;-75
2021/11/02 14:14:05;;;;;;;1.65;0.52;;;;;;;9.51;95.94;99964.44;5013645;28;20568;-75
2021/11/02 14:16:41;;;;;;;1.38;0.52;;;;;;;9.50;93.62;99959.19;5015691;28;20033;-74
2021/11/02 14:19:32;;;;;;;2.45;0.50;;;;;;;9.51;92.88;99963.56;5014817;28;20335;-75
2021/11/02 14:21:58;;;;;;;3.17;0.77;;;;;;;9.48;93.37;99976.66;5013774;28;20084;-75
2021/11/02 14:24:30;;;;;;;2.42;0.52;;;;;;;9.51;94.88;99968.81;5014546;28;20022;-75
2021/11/02 14:26:56;;;;;;;5.65;0.80;;;;;;;9.53;96.09;99974.97;5015050;28;20081;-74
2021/11/02 14:29:57;;;;;;;2.58;0.70;;;;;;;9.48;94.43;99981.94;5013437;28;20056;-74
2021/11/02 14:32:40;;;;;;;3.42;0.75;;;;;;;9.49;96.22;99988.94;5015283;28;20474;-74
2021/11/02 14:35:11;;;;;;;1.75;0.55;;;;;;;9.46;96.21;99989.78;5013700;28;20511;-74
2021/11/02 14:37:50;;;;;;;3.50;0.70;;;;;;;9.44;96.68;99992.41;5014814;28;20105;-73
2021/11/02 14:40:35;;;;;;;4.90;0.80;;;;;;;9.44;96.87;100002.91;5014925;28;20034;-74
2021/11/02 14:43:12;;;;;;;1.00;0.60;;;;;;;9.43;97.86;100005.53;5013881;28;20363;-73
2021/11/02 14:45:53;;;;;;;3.28;0.85;;;;;;;9.38;97.12;100007.25;5014190;28;20109;-74
2021/11/02 14:48:24;;;;;;;2.85;0.88;;;;;;;9.32;97.13;100008.06;5014450;28;20029;-74
2021/11/02 14:51:00;;;;;;;1.77;0.75;;;;;;;9.29;97.13;100005.41;5013666;28;20026;-73
2021/11/02 14:53:28;;;;;;;4.07;0.60;;;;;;;9.30;96.54;100004.53;5019164;28;20022;-75
2021/11/02 14:56:09;;;;;;;2.75;0.75;;;;;;;9.28;95.63;100003.66;5015325;28;20080;-75
2021/11/02 14:58:41;;;;;;;3.00;1.05;;;;;;;9.26;95.51;100005.38;5020533;28;20026;-74
2021/11/02 15:01:37;;;;;;;2.55;0.80;;;;;;;9.25;95.14;100008.88;5014310;28;20053;-74
2021/11/02 15:04:18;;;;;;;2.28;0.73;;;;;;;9.26;95.61;100013.25;5014104;28;20018;-76
2021/11/02 15:06:47;;;;;;;1.80;0.60;;;;;;;9.21;92.20;100010.63;5008224;28;20038;-75
2021/11/02 15:09:16;;;;;;;2.13;0.63;;;;;;;9.19;92.72;100003.59;5014247;28;20128;-75
2021/11/02 15:11:43;;;;;;;4.03;0.70;;;;;;;9.18;92.82;100020.19;5012789;28;20063;-74
2021/11/02 15:14:24;;;;;;;0.85;0.47;;;;;;;9.17;93.11;100023.69;5013752;28;20025;-73
2021/11/02 15:16:58;;;;;;;1.33;0.50;;;;;;;9.14;92.81;100018.41;5015482;28;20049;-74
2021/11/02 15:19:26;;;;;;;2.08;0.60;;;;;;;9.12;92.61;100021.03;5013156;28;20021;-75
2021/11/02 15:21:58;;;;;;;1.35;0.43;;;;;;;9.13;93.55;100024.50;5014400;28;20030;-75
2021/11/02 15:24:25;;;;;;;0.75;0.40;;;;;;;9.09;94.83;100027.13;5013373;28;20021;-74
2021/11/02 15:27:04;;;;;;;1.58;0.50;;;;;;;9.06;96.35;100029.72;5015066;28;20041;-75
2021/11/02 15:29:32;;;;;;;1.05;0.35;;;;;;;9.01;97.15;100027.94;5013215;28;20033;-75
2021/11/02 15:32:07;;;;;;;1.33;0.50;;;;;;;8.96;98.72;100033.13;5015366;28;20036;-75
2021/11/02 15:34:51;;;;;;;2.05;0.50;;;;;;;8.90;100.00;100033.06;5013313;28;20022;-75
2021/11/02 15:37:22;;;;;;;1.33;0.50;;;;;;;8.86;100.00;100033.91;5014471;28;20161;-74
2021/11/02 15:39:54;;;;;;;1.70;0.50;;;;;;;8.84;100.00;100035.63;5014558;28;20032;-74
2021/11/02 15:42:41;;;;;;;1.25;0.47;;;;;;;8.81;100.00;100035.59;5014311;28;20018;-74
2021/11/02 15:45:11;;;;;;;3.38;0.85;;;;;;;8.81;100.00;100040.84;5017802;28;20404;-74
2021/11/02 15:47:46;;;;;;;1.77;0.80;;;;;;;8.82;100.00;100042.56;5014626;28;20500;-75
2021/11/02 15:50:23;;;;;;;1.60;0.70;;;;;;;8.84;100.00;100060.09;5019114;28;20021;-74
2021/11/02 15:52:49;;;;;;;2.50;1.00;;;;;;;8.86;100.00;100052.28;5022479;28;20033;-74
2021/11/02 15:55:25;;;;;;;1.02;0.80;;;;;;;8.86;100.00;100054.88;5015016;28;20029;-75
2021/11/02 15:57:56;;;;;;;0.90;0.60;;;;;;;8.88;100.00;100059.25;5017327;28;20021;-75
2021/11/02 16:00:24;;;;;;;1.63;0.55;;;;;;;8.87;100.00;100064.50;5010944;28;20025;-74
2021/11/02 16:02:49;;;;;;;2.25;0.57;;;;;;;8.85;100.00;100059.22;5014712;28;20022;-73
2021/11/02 16:05:18;;;;;;;2.45;0.75;;;;;;;8.82;100.00;100056.59;5020376;28;20105;-73
2021/11/02 16:07:44;;;;;;;1.05;0.57;;;;;;;8.76;100.00;100060.03;5016080;28;20482;-74
2021/11/02 16:10:10;;;;;;;2.55;0.60;;;;;;;8.72;100.00;100062.59;5022565;28;20057;-73
2021/11/02 16:12:39;;;;;;;2.88;0.73;;;;;;;8.67;100.00;100059.91;5019807;28;20049;-74
2021/11/02 16:15:08;;;;;;;1.35;0.70;;;;;;;8.66;100.00;100066.03;5012136;28;20064;-73
2021/11/02 16:17:51;;;;;;;2.78;1.10;;;;;;;8.63;100.00;100068.63;5012818;28;20088;-74
2021/11/02 16:20:18;;;;;;;4.40;0.80;;;;;;;8.62;100.00;100066.84;5012001;28;20504;-74
2021/11/02 16:22:55;;;;;;;1.83;1.20;;;;;;;8.59;100.00;100066.81;5010321;28;20068;-73
2021/11/02 16:25:21;;;;;;;2.13;1.05;;;;;;;8.54;100.00;100066.75;5031740;28;20049;-73
2021/11/02 16:28:02;;;;;;;1.30;1.10;;;;;;;8.53;100.00;100069.34;5009387;28;20038;-73
2021/11/02 16:30:32;;;;;;;1.45;0.90;;;;;;;8.47;100.00;100066.66;5020812;28;20367;-74
2021/11/02 16:32:58;;;;;;;1.95;0.80;;;;;;;8.46;100.00;100071.00;5020558;28;20026;-71
2021/11/02 16:35:42;;;;;;;2.72;1.20;;;;;;;8.47;100.00;100061.44;5018146;28;20100;-73
2021/11/02 16:38:22;;;;;;;4.47;1.40;;;;;;;8.43;100.00;100057.84;5033193;28;20080;-73
2021/11/02 16:41:06;;;;;;;3.03;1.33;;;;;;;8.41;100.00;100067.41;5017254;28;20025;-72
2021/11/02 16:43:36;;;;;;;3.03;1.50;;;;;;;8.40;100.00;100066.53;5017801;28;20072;-75
2021/11/02 16:46:04;;;;;;;2.22;1.67;;;;;;;8.41;100.00;100076.19;5018878;28;20029;-73